Terminal Aerodrome Forecast
Issued by NWS Charleston, WV

Home | Current Version | Previous Version | Text Only | Print | Product List | Glossary On
Versions: 1 2 3 4 5 6 7 8 9 10 11 12 13 14 15 16 17 18 19 20 21 22 23 24 25 26
000
FTUS41 KRLX 021127
TAFHTS
TAF
KHTS 021127Z 0212/0312 34004KT 2SM BR OVC004
      TEMPO 0212/0214 4SM BR OVC008
     FM021400 36004KT P6SM BKN015
     FM022300 03004KT P6SM BKN035
     FM030500 VRB03KT P6SM BKN060
     FM030900 VRB03KT 5SM BR BKN060
     FM031100 VRB03KT 6SM BR BKN030=

USA.gov is the U.S. government's official web portal to all federal, state and local government web resources and services.